sensor_id;sensor_type;location;lat;lon;timestamp;P1;durP1;ratioP1;P2;durP2;ratioP2
10715;SDS011;5409;42.620;23.316;2023-02-24T00:00:05;29.27;;;16.10;;
10715;SDS011;5409;42.620;23.316;2023-02-24T00:02:55;27.58;;;14.27;;
10715;SDS011;5409;42.620;23.316;2023-02-24T00:05:23;29.52;;;15.77;;
10715;SDS011;5409;42.620;23.316;2023-02-24T00:07:49;27.42;;;16.40;;
10715;SDS011;5409;42.620;23.316;2023-02-24T00:10:16;28.55;;;15.75;;
10715;SDS011;5409;42.620;23.316;2023-02-24T00:12:43;25.17;;;15.70;;
10715;SDS011;5409;42.620;23.316;2023-02-24T00:15:12;26.38;;;15.13;;
10715;SDS011;5409;42.620;23.316;2023-02-24T00:17:39;25.45;;;15.15;;
10715;SDS011;5409;42.620;23.316;2023-02-24T00:20:06;23.10;;;14.60;;
10715;SDS011;5409;42.620;23.316;2023-02-24T00:22:36;26.42;;;14.60;;
10715;SDS011;5409;42.620;23.316;2023-02-24T00:25:03;22.67;;;14.02;;
10715;SDS011;5409;42.620;23.316;2023-02-24T00:27:29;29.38;;;15.73;;
10715;SDS011;5409;42.620;23.316;2023-02-24T00:29:56;24.98;;;14.00;;
10715;SDS011;5409;42.620;23.316;2023-02-24T00:32:24;24.52;;;13.80;;
10715;SDS011;5409;42.620;23.316;2023-02-24T00:34:51;26.08;;;14.93;;
10715;SDS011;5409;42.620;23.316;2023-02-24T00:37:17;25.75;;;15.70;;
10715;SDS011;5409;42.620;23.316;2023-02-24T00:39:48;26.23;;;13.95;;
10715;SDS011;5409;42.620;23.316;2023-02-24T00:42:14;25.27;;;14.60;;
10715;SDS011;5409;42.620;23.316;2023-02-24T00:44:42;27.25;;;14.85;;
10715;SDS011;5409;42.620;23.316;2023-02-24T00:47:09;26.90;;;14.55;;
10715;SDS011;5409;42.620;23.316;2023-02-24T00:49:38;23.75;;;13.80;;
10715;SDS011;5409;42.620;23.316;2023-02-24T00:52:07;23.98;;;13.82;;
10715;SDS011;5409;42.620;23.316;2023-02-24T00:54:34;30.15;;;15.57;;
10715;SDS011;5409;42.620;23.316;2023-02-24T00:57:00;29.23;;;14.80;;
10715;SDS011;5409;42.620;23.316;2023-02-24T00:59:27;24.23;;;14.48;;
10715;SDS011;5409;42.620;23.316;2023-02-24T01:01:54;25.15;;;13.57;;
10715;SDS011;5409;42.620;23.316;2023-02-24T01:04:21;25.13;;;14.63;;
10715;SDS011;5409;42.620;23.316;2023-02-24T01:06:50;24.35;;;13.48;;
10715;SDS011;5409;42.620;23.316;2023-02-24T01:09:17;26.40;;;14.52;;
10715;SDS011;5409;42.620;23.316;2023-02-24T01:11:45;20.95;;;12.73;;
10715;SDS011;5409;42.620;23.316;2023-02-24T01:14:30;23.80;;;14.55;;
10715;SDS011;5409;42.620;23.316;2023-02-24T01:16:56;25.05;;;14.35;;
10715;SDS011;5409;42.620;23.316;2023-02-24T01:19:24;22.15;;;13.18;;
10715;SDS011;5409;42.620;23.316;2023-02-24T01:21:56;23.05;;;13.57;;
10715;SDS011;5409;42.620;23.316;2023-02-24T01:24:23;21.95;;;13.48;;
10715;SDS011;5409;42.620;23.316;2023-02-24T01:26:50;21.63;;;12.52;;
10715;SDS011;5409;42.620;23.316;2023-02-24T01:29:16;20.98;;;13.05;;
10715;SDS011;5409;42.620;23.316;2023-02-24T01:31:43;24.27;;;13.55;;
10715;SDS011;5409;42.620;23.316;2023-02-24T01:34:10;22.65;;;12.57;;
10715;SDS011;5409;42.620;23.316;2023-02-24T01:36:38;22.65;;;13.02;;
10715;SDS011;5409;42.620;23.316;2023-02-24T01:39:06;24.02;;;13.30;;
10715;SDS011;5409;42.620;23.316;2023-02-24T01:41:35;24.05;;;14.15;;
10715;SDS011;5409;42.620;23.316;2023-02-24T01:44:04;22.83;;;13.43;;
10715;SDS011;5409;42.620;23.316;2023-02-24T01:46:34;21.92;;;13.25;;
10715;SDS011;5409;42.620;23.316;2023-02-24T01:49:04;22.70;;;12.98;;
10715;SDS011;5409;42.620;23.316;2023-02-24T01:51:33;22.98;;;12.68;;
10715;SDS011;5409;42.620;23.316;2023-02-24T01:54:01;19.52;;;11.70;;
10715;SDS011;5409;42.620;23.316;2023-02-24T01:56:31;14.73;;;9.77;;
10715;SDS011;5409;42.620;23.316;2023-02-24T01:58:57;19.15;;;9.55;;
10715;SDS011;5409;42.620;23.316;2023-02-24T02:01:24;17.70;;;10.10;;
10715;SDS011;5409;42.620;23.316;2023-02-24T02:03:53;16.77;;;10.70;;
10715;SDS011;5409;42.620;23.316;2023-02-24T02:06:23;16.15;;;9.52;;
10715;SDS011;5409;42.620;23.316;2023-02-24T02:08:49;13.95;;;9.25;;
10715;SDS011;5409;42.620;23.316;2023-02-24T02:11:16;17.63;;;11.02;;
10715;SDS011;5409;42.620;23.316;2023-02-24T02:13:46;17.17;;;10.32;;
10715;SDS011;5409;42.620;23.316;2023-02-24T02:16:31;17.52;;;9.80;;
10715;SDS011;5409;42.620;23.316;2023-02-24T02:19:07;18.88;;;9.88;;
10715;SDS011;5409;42.620;23.316;2023-02-24T02:22:04;16.63;;;9.80;;
10715;SDS011;5409;42.620;23.316;2023-02-24T02:24:37;18.48;;;10.25;;
10715;SDS011;5409;42.620;23.316;2023-02-24T02:29:56;16.10;;;8.25;;
10715;SDS011;5409;42.620;23.316;2023-02-24T02:35:21;11.88;;;8.00;;
10715;SDS011;5409;42.620;23.316;2023-02-24T02:37:51;14.15;;;8.05;;
10715;SDS011;5409;42.620;23.316;2023-02-24T02:40:21;12.30;;;7.93;;
10715;SDS011;5409;42.620;23.316;2023-02-24T02:42:52;11.23;;;7.05;;
10715;SDS011;5409;42.620;23.316;2023-02-24T02:45:21;13.07;;;7.45;;
10715;SDS011;5409;42.620;23.316;2023-02-24T02:47:49;12.43;;;7.93;;
10715;SDS011;5409;42.620;23.316;2023-02-24T02:50:18;10.48;;;7.03;;
10715;SDS011;5409;42.620;23.316;2023-02-24T02:52:51;11.38;;;7.22;;
10715;SDS011;5409;42.620;23.316;2023-02-24T02:55:21;12.40;;;7.53;;
10715;SDS011;5409;42.620;23.316;2023-02-24T02:57:50;16.35;;;7.82;;
10715;SDS011;5409;42.620;23.316;2023-02-24T03:00:18;10.60;;;6.45;;
10715;SDS011;5409;42.620;23.316;2023-02-24T03:02:47;11.15;;;6.25;;
10715;SDS011;5409;42.620;23.316;2023-02-24T03:05:17;9.27;;;5.88;;
10715;SDS011;5409;42.620;23.316;2023-02-24T03:07:47;9.90;;;6.68;;
10715;SDS011;5409;42.620;23.316;2023-02-24T03:12:52;10.55;;;6.50;;
10715;SDS011;5409;42.620;23.316;2023-02-24T03:15:21;10.63;;;6.40;;
10715;SDS011;5409;42.620;23.316;2023-02-24T03:17:50;9.23;;;6.07;;
10715;SDS011;5409;42.620;23.316;2023-02-24T03:20:22;8.25;;;6.40;;
10715;SDS011;5409;42.620;23.316;2023-02-24T03:22:53;11.57;;;7.20;;
10715;SDS011;5409;42.620;23.316;2023-02-24T03:25:24;11.63;;;7.43;;
10715;SDS011;5409;42.620;23.316;2023-02-24T03:27:56;10.88;;;7.28;;
10715;SDS011;5409;42.620;23.316;2023-02-24T03:30:26;12.43;;;7.32;;
10715;SDS011;5409;42.620;23.316;2023-02-24T03:32:55;11.43;;;7.05;;
10715;SDS011;5409;42.620;23.316;2023-02-24T03:35:24;12.65;;;7.47;;
10715;SDS011;5409;42.620;23.316;2023-02-24T03:37:51;13.77;;;7.93;;
10715;SDS011;5409;42.620;23.316;2023-02-24T03:40:19;12.75;;;7.75;;
10715;SDS011;5409;42.620;23.316;2023-02-24T03:42:47;13.55;;;7.68;;
10715;SDS011;5409;42.620;23.316;2023-02-24T03:45:17;14.85;;;9.25;;
10715;SDS011;5409;42.620;23.316;2023-02-24T03:47:46;14.00;;;8.70;;
10715;SDS011;5409;42.620;23.316;2023-02-24T03:50:14;15.95;;;8.88;;
10715;SDS011;5409;42.620;23.316;2023-02-24T03:52:42;15.07;;;9.13;;
10715;SDS011;5409;42.620;23.316;2023-02-24T03:55:17;14.23;;;9.10;;
10715;SDS011;5409;42.620;23.316;2023-02-24T03:57:53;14.82;;;8.52;;
10715;SDS011;5409;42.620;23.316;2023-02-24T04:00:29;13.38;;;9.15;;
10715;SDS011;5409;42.620;23.316;2023-02-24T04:03:03;16.73;;;9.10;;
10715;SDS011;5409;42.620;23.316;2023-02-24T04:05:31;15.05;;;9.15;;
10715;SDS011;5409;42.620;23.316;2023-02-24T04:08:01;12.75;;;8.88;;
10715;SDS011;5409;42.620;23.316;2023-02-24T04:10:29;15.80;;;9.13;;
10715;SDS011;5409;42.620;23.316;2023-02-24T04:12:58;17.88;;;9.60;;
10715;SDS011;5409;42.620;23.316;2023-02-24T04:15:29;17.05;;;8.75;;
10715;SDS011;5409;42.620;23.316;2023-02-24T04:18:00;13.50;;;8.05;;
10715;SDS011;5409;42.620;23.316;2023-02-24T04:20:29;13.02;;;8.27;;
10715;SDS011;5409;42.620;23.316;2023-02-24T04:22:56;13.82;;;8.63;;
10715;SDS011;5409;42.620;23.316;2023-02-24T04:25:24;12.43;;;7.50;;
10715;SDS011;5409;42.620;23.316;2023-02-24T04:27:52;11.90;;;7.22;;
10715;SDS011;5409;42.620;23.316;2023-02-24T04:30:19;11.40;;;8.00;;
10715;SDS011;5409;42.620;23.316;2023-02-24T04:32:47;11.88;;;6.85;;
10715;SDS011;5409;42.620;23.316;2023-02-24T04:35:15;10.65;;;6.55;;
10715;SDS011;5409;42.620;23.316;2023-02-24T04:37:44;11.48;;;6.60;;
10715;SDS011;5409;42.620;23.316;2023-02-24T04:40:11;9.88;;;7.28;;
10715;SDS011;5409;42.620;23.316;2023-02-24T04:42:40;10.20;;;6.90;;
10715;SDS011;5409;42.620;23.316;2023-02-24T04:45:10;10.52;;;6.18;;
10715;SDS011;5409;42.620;23.316;2023-02-24T04:47:37;10.77;;;6.00;;
10715;SDS011;5409;42.620;23.316;2023-02-24T04:50:08;11.40;;;6.95;;
10715;SDS011;5409;42.620;23.316;2023-02-24T04:52:36;11.25;;;6.18;;
10715;SDS011;5409;42.620;23.316;2023-02-24T04:55:03;9.52;;;6.32;;
10715;SDS011;5409;42.620;23.316;2023-02-24T04:57:34;12.18;;;6.85;;
10715;SDS011;5409;42.620;23.316;2023-02-24T05:00:02;12.48;;;7.45;;
10715;SDS011;5409;42.620;23.316;2023-02-24T05:02:36;11.18;;;6.30;;
10715;SDS011;5409;42.620;23.316;2023-02-24T05:05:03;9.65;;;6.38;;
10715;SDS011;5409;42.620;23.316;2023-02-24T05:07:33;11.82;;;6.50;;
10715;SDS011;5409;42.620;23.316;2023-02-24T05:09:59;9.45;;;5.88;;
10715;SDS011;5409;42.620;23.316;2023-02-24T05:12:26;9.60;;;6.57;;
10715;SDS011;5409;42.620;23.316;2023-02-24T05:14:53;11.65;;;7.35;;
10715;SDS011;5409;42.620;23.316;2023-02-24T05:17:20;11.05;;;6.40;;
10715;SDS011;5409;42.620;23.316;2023-02-24T05:19:46;10.77;;;7.18;;
10715;SDS011;5409;42.620;23.316;2023-02-24T05:22:30;13.48;;;7.07;;
10715;SDS011;5409;42.620;23.316;2023-02-24T05:24:58;12.57;;;7.15;;
10715;SDS011;5409;42.620;23.316;2023-02-24T05:27:25;11.80;;;6.55;;
10715;SDS011;5409;42.620;23.316;2023-02-24T05:29:52;14.20;;;7.25;;
10715;SDS011;5409;42.620;23.316;2023-02-24T05:32:19;11.32;;;7.32;;
10715;SDS011;5409;42.620;23.316;2023-02-24T05:34:49;13.80;;;7.72;;
10715;SDS011;5409;42.620;23.316;2023-02-24T05:37:15;13.43;;;8.23;;
10715;SDS011;5409;42.620;23.316;2023-02-24T05:39:42;11.68;;;7.50;;
10715;SDS011;5409;42.620;23.316;2023-02-24T05:42:10;13.65;;;7.85;;
10715;SDS011;5409;42.620;23.316;2023-02-24T05:44:36;13.10;;;7.10;;
10715;SDS011;5409;42.620;23.316;2023-02-24T05:47:03;11.40;;;7.70;;
10715;SDS011;5409;42.620;23.316;2023-02-24T05:49:31;12.00;;;7.88;;
10715;SDS011;5409;42.620;23.316;2023-02-24T05:51:58;14.48;;;8.45;;
10715;SDS011;5409;42.620;23.316;2023-02-24T05:54:26;15.90;;;9.38;;
10715;SDS011;5409;42.620;23.316;2023-02-24T05:56:54;14.90;;;8.95;;
10715;SDS011;5409;42.620;23.316;2023-02-24T05:59:23;15.38;;;9.23;;
10715;SDS011;5409;42.620;23.316;2023-02-24T06:01:53;13.57;;;8.07;;
10715;SDS011;5409;42.620;23.316;2023-02-24T06:04:20;15.85;;;10.10;;
10715;SDS011;5409;42.620;23.316;2023-02-24T06:07:03;15.15;;;8.95;;
10715;SDS011;5409;42.620;23.316;2023-02-24T06:09:30;12.80;;;8.73;;
10715;SDS011;5409;42.620;23.316;2023-02-24T06:11:56;15.07;;;9.00;;
10715;SDS011;5409;42.620;23.316;2023-02-24T06:14:24;13.25;;;8.93;;
10715;SDS011;5409;42.620;23.316;2023-02-24T06:16:52;16.73;;;9.75;;
10715;SDS011;5409;42.620;23.316;2023-02-24T06:19:18;19.92;;;12.18;;
10715;SDS011;5409;42.620;23.316;2023-02-24T06:21:45;22.45;;;12.32;;
10715;SDS011;5409;42.620;23.316;2023-02-24T06:24:13;19.15;;;11.80;;
10715;SDS011;5409;42.620;23.316;2023-02-24T06:26:42;20.23;;;11.70;;
10715;SDS011;5409;42.620;23.316;2023-02-24T06:29:10;19.88;;;11.63;;
10715;SDS011;5409;42.620;23.316;2023-02-24T06:31:38;18.63;;;11.82;;
10715;SDS011;5409;42.620;23.316;2023-02-24T06:34:05;17.33;;;10.40;;
10715;SDS011;5409;42.620;23.316;2023-02-24T06:36:32;16.15;;;9.95;;
10715;SDS011;5409;42.620;23.316;2023-02-24T06:38:58;12.95;;;8.15;;
10715;SDS011;5409;42.620;23.316;2023-02-24T06:41:25;11.23;;;6.70;;
10715;SDS011;5409;42.620;23.316;2023-02-24T06:43:53;12.68;;;6.80;;
10715;SDS011;5409;42.620;23.316;2023-02-24T06:46:20;11.55;;;7.28;;
10715;SDS011;5409;42.620;23.316;2023-02-24T06:48:47;11.57;;;7.32;;
10715;SDS011;5409;42.620;23.316;2023-02-24T06:51:14;11.40;;;7.45;;
10715;SDS011;5409;42.620;23.316;2023-02-24T06:53:41;12.27;;;7.35;;
10715;SDS011;5409;42.620;23.316;2023-02-24T06:56:08;12.32;;;7.88;;
10715;SDS011;5409;42.620;23.316;2023-02-24T06:58:39;12.27;;;7.63;;
10715;SDS011;5409;42.620;23.316;2023-02-24T07:01:08;11.48;;;8.05;;
10715;SDS011;5409;42.620;23.316;2023-02-24T07:03:36;17.15;;;8.27;;
10715;SDS011;5409;42.620;23.316;2023-02-24T07:06:06;15.68;;;9.70;;
10715;SDS011;5409;42.620;23.316;2023-02-24T07:08:50;14.70;;;10.07;;
10715;SDS011;5409;42.620;23.316;2023-02-24T07:11:17;17.05;;;10.18;;
10715;SDS011;5409;42.620;23.316;2023-02-24T07:13:44;12.65;;;8.95;;
10715;SDS011;5409;42.620;23.316;2023-02-24T07:16:12;14.75;;;8.60;;
10715;SDS011;5409;42.620;23.316;2023-02-24T07:18:40;8.70;;;6.90;;
10715;SDS011;5409;42.620;23.316;2023-02-24T07:21:08;11.25;;;7.32;;
10715;SDS011;5409;42.620;23.316;2023-02-24T07:23:36;11.80;;;7.32;;
10715;SDS011;5409;42.620;23.316;2023-02-24T07:26:05;10.88;;;7.18;;
10715;SDS011;5409;42.620;23.316;2023-02-24T07:28:34;10.77;;;7.55;;
10715;SDS011;5409;42.620;23.316;2023-02-24T07:31:03;11.73;;;7.32;;
10715;SDS011;5409;42.620;23.316;2023-02-24T07:33:32;16.67;;;7.93;;
10715;SDS011;5409;42.620;23.316;2023-02-24T07:35:59;14.25;;;7.88;;
10715;SDS011;5409;42.620;23.316;2023-02-24T07:38:33;11.60;;;7.40;;
10715;SDS011;5409;42.620;23.316;2023-02-24T07:41:00;12.70;;;8.18;;
10715;SDS011;5409;42.620;23.316;2023-02-24T07:43:26;16.75;;;8.32;;
10715;SDS011;5409;42.620;23.316;2023-02-24T07:45:53;10.38;;;7.70;;
10715;SDS011;5409;42.620;23.316;2023-02-24T07:48:22;11.95;;;8.27;;
10715;SDS011;5409;42.620;23.316;2023-02-24T07:50:49;14.25;;;8.68;;
10715;SDS011;5409;42.620;23.316;2023-02-24T07:53:17;13.10;;;8.38;;
10715;SDS011;5409;42.620;23.316;2023-02-24T07:55:45;11.30;;;7.95;;
10715;SDS011;5409;42.620;23.316;2023-02-24T07:58:11;11.05;;;7.72;;
10715;SDS011;5409;42.620;23.316;2023-02-24T08:00:38;17.70;;;9.23;;
10715;SDS011;5409;42.620;23.316;2023-02-24T08:03:23;13.88;;;8.15;;
10715;SDS011;5409;42.620;23.316;2023-02-24T08:05:53;14.68;;;8.35;;
10715;SDS011;5409;42.620;23.316;2023-02-24T08:08:19;14.18;;;8.18;;
10715;SDS011;5409;42.620;23.316;2023-02-24T08:10:51;11.02;;;7.15;;
10715;SDS011;5409;42.620;23.316;2023-02-24T08:13:28;14.02;;;8.77;;
10715;SDS011;5409;42.620;23.316;2023-02-24T08:16:03;13.75;;;8.55;;
10715;SDS011;5409;42.620;23.316;2023-02-24T08:18:30;16.52;;;9.52;;
10715;SDS011;5409;42.620;23.316;2023-02-24T08:21:01;16.95;;;9.27;;
10715;SDS011;5409;42.620;23.316;2023-02-24T08:23:28;14.07;;;8.43;;
10715;SDS011;5409;42.620;23.316;2023-02-24T08:26:01;11.00;;;7.78;;
10715;SDS011;5409;42.620;23.316;2023-02-24T08:28:28;11.25;;;7.43;;
10715;SDS011;5409;42.620;23.316;2023-02-24T08:30:55;13.60;;;8.10;;
10715;SDS011;5409;42.620;23.316;2023-02-24T08:33:23;16.02;;;7.95;;
10715;SDS011;5409;42.620;23.316;2023-02-24T08:35:54;11.57;;;7.85;;
10715;SDS011;5409;42.620;23.316;2023-02-24T08:38:26;14.70;;;7.97;;
10715;SDS011;5409;42.620;23.316;2023-02-24T08:41:05;14.05;;;8.73;;
10715;SDS011;5409;42.620;23.316;2023-02-24T08:43:37;14.82;;;9.48;;
10715;SDS011;5409;42.620;23.316;2023-02-24T08:46:05;16.05;;;9.38;;
10715;SDS011;5409;42.620;23.316;2023-02-24T08:48:38;19.02;;;9.07;;
10715;SDS011;5409;42.620;23.316;2023-02-24T08:51:07;13.93;;;8.43;;
10715;SDS011;5409;42.620;23.316;2023-02-24T08:53:35;12.27;;;7.97;;
10715;SDS011;5409;42.620;23.316;2023-02-24T08:56:06;11.27;;;8.02;;
10715;SDS011;5409;42.620;23.316;2023-02-24T08:58:35;13.95;;;7.90;;
10715;SDS011;5409;42.620;23.316;2023-02-24T09:01:05;13.15;;;8.25;;
10715;SDS011;5409;42.620;23.316;2023-02-24T09:03:42;14.63;;;8.93;;
10715;SDS011;5409;42.620;23.316;2023-02-24T09:06:10;15.02;;;8.55;;
10715;SDS011;5409;42.620;23.316;2023-02-24T09:08:37;19.35;;;8.15;;
10715;SDS011;5409;42.620;23.316;2023-02-24T09:11:08;12.82;;;8.07;;
10715;SDS011;5409;42.620;23.316;2023-02-24T09:13:38;16.38;;;7.70;;
10715;SDS011;5409;42.620;23.316;2023-02-24T09:16:15;14.95;;;8.43;;
10715;SDS011;5409;42.620;23.316;2023-02-24T09:18:42;14.98;;;7.93;;
10715;SDS011;5409;42.620;23.316;2023-02-24T09:21:09;14.98;;;8.18;;
10715;SDS011;5409;42.620;23.316;2023-02-24T09:24:01;13.55;;;7.70;;
10715;SDS011;5409;42.620;23.316;2023-02-24T09:26:32;18.73;;;8.68;;
10715;SDS011;5409;42.620;23.316;2023-02-24T09:29:07;17.77;;;8.68;;
10715;SDS011;5409;42.620;23.316;2023-02-24T09:31:54;14.43;;;8.75;;
10715;SDS011;5409;42.620;23.316;2023-02-24T09:34:28;11.65;;;8.13;;
10715;SDS011;5409;42.620;23.316;2023-02-24T09:36:55;17.67;;;7.97;;
10715;SDS011;5409;42.620;23.316;2023-02-24T09:39:27;14.40;;;9.00;;
10715;SDS011;5409;42.620;23.316;2023-02-24T09:41:56;15.30;;;8.40;;
10715;SDS011;5409;42.620;23.316;2023-02-24T09:44:45;13.10;;;8.00;;
10715;SDS011;5409;42.620;23.316;2023-02-24T09:47:17;13.32;;;8.48;;
10715;SDS011;5409;42.620;23.316;2023-02-24T09:49:55;15.98;;;9.10;;
10715;SDS011;5409;42.620;23.316;2023-02-24T09:52:23;14.63;;;8.60;;
10715;SDS011;5409;42.620;23.316;2023-02-24T09:55:03;17.23;;;9.20;;
10715;SDS011;5409;42.620;23.316;2023-02-24T09:57:51;13.40;;;8.38;;
10715;SDS011;5409;42.620;23.316;2023-02-24T10:00:49;15.45;;;8.18;;
10715;SDS011;5409;42.620;23.316;2023-02-24T10:03:18;15.65;;;8.25;;
10715;SDS011;5409;42.620;23.316;2023-02-24T10:06:09;13.00;;;8.35;;
10715;SDS011;5409;42.620;23.316;2023-02-24T10:08:37;16.45;;;8.40;;
10715;SDS011;5409;42.620;23.316;2023-02-24T10:11:05;14.77;;;8.35;;
10715;SDS011;5409;42.620;23.316;2023-02-24T10:13:35;17.02;;;8.27;;
10715;SDS011;5409;42.620;23.316;2023-02-24T10:16:03;14.40;;;8.73;;
10715;SDS011;5409;42.620;23.316;2023-02-24T10:18:34;15.57;;;8.85;;
10715;SDS011;5409;42.620;23.316;2023-02-24T10:21:05;14.60;;;8.50;;
10715;SDS011;5409;42.620;23.316;2023-02-24T10:23:38;15.98;;;9.15;;
10715;SDS011;5409;42.620;23.316;2023-02-24T10:26:10;13.85;;;9.25;;
10715;SDS011;5409;42.620;23.316;2023-02-24T10:28:48;12.38;;;8.60;;
10715;SDS011;5409;42.620;23.316;2023-02-24T10:31:16;18.83;;;9.20;;
10715;SDS011;5409;42.620;23.316;2023-02-24T10:33:49;15.10;;;9.02;;
10715;SDS011;5409;42.620;23.316;2023-02-24T10:36:18;14.98;;;9.07;;
10715;SDS011;5409;42.620;23.316;2023-02-24T10:38:50;18.80;;;10.13;;
10715;SDS011;5409;42.620;23.316;2023-02-24T10:41:20;17.13;;;9.35;;
10715;SDS011;5409;42.620;23.316;2023-02-24T10:43:54;17.35;;;8.55;;
10715;SDS011;5409;42.620;23.316;2023-02-24T10:46:25;17.73;;;9.60;;
10715;SDS011;5409;42.620;23.316;2023-02-24T10:48:58;16.63;;;8.82;;
10715;SDS011;5409;42.620;23.316;2023-02-24T10:51:28;22.00;;;9.60;;
10715;SDS011;5409;42.620;23.316;2023-02-24T10:54:03;19.23;;;10.82;;
10715;SDS011;5409;42.620;23.316;2023-02-24T10:56:46;23.75;;;10.55;;
10715;SDS011;5409;42.620;23.316;2023-02-24T10:59:20;19.33;;;10.15;;
10715;SDS011;5409;42.620;23.316;2023-02-24T11:02:13;16.92;;;8.90;;
10715;SDS011;5409;42.620;23.316;2023-02-24T11:04:50;14.32;;;9.18;;
10715;SDS011;5409;42.620;23.316;2023-02-24T11:07:40;13.80;;;7.93;;
10715;SDS011;5409;42.620;23.316;2023-02-24T11:10:18;14.15;;;8.48;;
10715;SDS011;5409;42.620;23.316;2023-02-24T11:12:50;16.67;;;9.45;;
10715;SDS011;5409;42.620;23.316;2023-02-24T11:15:48;17.42;;;8.65;;
10715;SDS011;5409;42.620;23.316;2023-02-24T11:18:33;14.95;;;8.70;;
10715;SDS011;5409;42.620;23.316;2023-02-24T11:21:00;13.32;;;8.48;;
10715;SDS011;5409;42.620;23.316;2023-02-24T11:23:29;12.93;;;8.05;;
10715;SDS011;5409;42.620;23.316;2023-02-24T11:25:57;15.13;;;8.18;;
10715;SDS011;5409;42.620;23.316;2023-02-24T11:31:11;12.90;;;8.25;;
10715;SDS011;5409;42.620;23.316;2023-02-24T11:33:41;13.07;;;7.80;;
10715;SDS011;5409;42.620;23.316;2023-02-24T11:36:13;13.02;;;7.82;;
10715;SDS011;5409;42.620;23.316;2023-02-24T11:38:45;9.98;;;7.40;;
10715;SDS011;5409;42.620;23.316;2023-02-24T11:41:16;14.48;;;8.52;;
10715;SDS011;5409;42.620;23.316;2023-02-24T11:43:54;13.65;;;8.20;;
10715;SDS011;5409;42.620;23.316;2023-02-24T11:46:24;11.88;;;7.35;;
10715;SDS011;5409;42.620;23.316;2023-02-24T11:48:53;17.55;;;8.35;;
10715;SDS011;5409;42.620;23.316;2023-02-24T11:51:22;19.23;;;9.13;;
10715;SDS011;5409;42.620;23.316;2023-02-24T11:53:50;14.65;;;9.23;;
10715;SDS011;5409;42.620;23.316;2023-02-24T11:56:18;14.93;;;9.07;;
10715;SDS011;5409;42.620;23.316;2023-02-24T11:58:48;11.70;;;7.75;;
10715;SDS011;5409;42.620;23.316;2023-02-24T12:01:17;12.73;;;8.80;;
10715;SDS011;5409;42.620;23.316;2023-02-24T12:03:53;15.13;;;8.60;;
10715;SDS011;5409;42.620;23.316;2023-02-24T12:06:24;16.10;;;8.38;;
10715;SDS011;5409;42.620;23.316;2023-02-24T12:08:52;18.65;;;9.75;;
10715;SDS011;5409;42.620;23.316;2023-02-24T12:11:22;15.05;;;9.40;;
10715;SDS011;5409;42.620;23.316;2023-02-24T12:13:55;17.05;;;10.38;;
10715;SDS011;5409;42.620;23.316;2023-02-24T12:16:27;11.95;;;8.55;;
10715;SDS011;5409;42.620;23.316;2023-02-24T12:18:57;12.18;;;8.30;;
10715;SDS011;5409;42.620;23.316;2023-02-24T12:21:25;15.90;;;9.00;;
10715;SDS011;5409;42.620;23.316;2023-02-24T12:23:54;14.35;;;9.07;;
10715;SDS011;5409;42.620;23.316;2023-02-24T12:26:23;12.75;;;8.23;;
10715;SDS011;5409;42.620;23.316;2023-02-24T12:29:09;14.60;;;8.35;;
10715;SDS011;5409;42.620;23.316;2023-02-24T12:31:42;15.02;;;8.65;;
10715;SDS011;5409;42.620;23.316;2023-02-24T12:34:21;11.70;;;8.15;;
10715;SDS011;5409;42.620;23.316;2023-02-24T12:37:05;17.02;;;8.15;;
10715;SDS011;5409;42.620;23.316;2023-02-24T12:39:42;11.45;;;8.13;;
10715;SDS011;5409;42.620;23.316;2023-02-24T12:42:13;10.40;;;8.10;;
10715;SDS011;5409;42.620;23.316;2023-02-24T12:44:43;15.90;;;8.88;;
10715;SDS011;5409;42.620;23.316;2023-02-24T12:47:13;15.98;;;9.27;;
10715;SDS011;5409;42.620;23.316;2023-02-24T12:49:46;16.27;;;8.13;;
10715;SDS011;5409;42.620;23.316;2023-02-24T12:52:18;14.27;;;9.20;;
10715;SDS011;5409;42.620;23.316;2023-02-24T12:54:46;16.15;;;8.40;;
10715;SDS011;5409;42.620;23.316;2023-02-24T12:57:16;14.57;;;8.95;;
10715;SDS011;5409;42.620;23.316;2023-02-24T12:59:44;13.55;;;8.55;;
10715;SDS011;5409;42.620;23.316;2023-02-24T13:02:12;14.60;;;9.50;;
10715;SDS011;5409;42.620;23.316;2023-02-24T13:04:48;13.00;;;8.80;;
10715;SDS011;5409;42.620;23.316;2023-02-24T13:10:08;14.07;;;9.15;;
10715;SDS011;5409;42.620;23.316;2023-02-24T13:12:39;11.40;;;8.35;;
10715;SDS011;5409;42.620;23.316;2023-02-24T13:15:22;16.10;;;8.93;;
10715;SDS011;5409;42.620;23.316;2023-02-24T13:17:49;17.38;;;10.00;;
10715;SDS011;5409;42.620;23.316;2023-02-24T13:20:28;15.18;;;8.75;;
10715;SDS011;5409;42.620;23.316;2023-02-24T13:22:55;21.30;;;9.80;;
10715;SDS011;5409;42.620;23.316;2023-02-24T13:25:24;12.98;;;8.98;;
10715;SDS011;5409;42.620;23.316;2023-02-24T13:27:54;20.60;;;8.88;;
10715;SDS011;5409;42.620;23.316;2023-02-24T13:30:29;17.17;;;10.00;;
10715;SDS011;5409;42.620;23.316;2023-02-24T13:33:01;14.18;;;8.77;;
10715;SDS011;5409;42.620;23.316;2023-02-24T13:35:30;14.10;;;9.02;;
10715;SDS011;5409;42.620;23.316;2023-02-24T13:38:05;13.65;;;9.18;;
10715;SDS011;5409;42.620;23.316;2023-02-24T13:40:32;16.20;;;9.07;;
10715;SDS011;5409;42.620;23.316;2023-02-24T13:43:00;16.80;;;9.38;;
10715;SDS011;5409;42.620;23.316;2023-02-24T13:45:28;23.48;;;8.80;;
10715;SDS011;5409;42.620;23.316;2023-02-24T13:48:03;13.38;;;9.18;;
10715;SDS011;5409;42.620;23.316;2023-02-24T13:50:35;14.07;;;9.27;;
10715;SDS011;5409;42.620;23.316;2023-02-24T13:53:12;15.48;;;9.07;;
10715;SDS011;5409;42.620;23.316;2023-02-24T13:56:00;14.70;;;9.30;;
10715;SDS011;5409;42.620;23.316;2023-02-24T13:58:33;15.55;;;9.43;;
10715;SDS011;5409;42.620;23.316;2023-02-24T14:01:04;16.38;;;9.60;;
10715;SDS011;5409;42.620;23.316;2023-02-24T14:03:31;14.30;;;9.18;;
10715;SDS011;5409;42.620;23.316;2023-02-24T14:06:00;18.00;;;9.68;;
10715;SDS011;5409;42.620;23.316;2023-02-24T14:08:30;20.08;;;9.93;;
10715;SDS011;5409;42.620;23.316;2023-02-24T14:10:59;15.80;;;9.55;;
10715;SDS011;5409;42.620;23.316;2023-02-24T14:13:26;15.23;;;9.60;;
10715;SDS011;5409;42.620;23.316;2023-02-24T14:15:58;13.98;;;9.00;;
10715;SDS011;5409;42.620;23.316;2023-02-24T14:18:25;14.70;;;9.30;;
10715;SDS011;5409;42.620;23.316;2023-02-24T14:20:52;13.23;;;9.00;;
10715;SDS011;5409;42.620;23.316;2023-02-24T14:23:22;20.20;;;12.77;;
10715;SDS011;5409;42.620;23.316;2023-02-24T14:25:51;29.63;;;15.13;;
10715;SDS011;5409;42.620;23.316;2023-02-24T14:28:20;20.02;;;13.88;;
10715;SDS011;5409;42.620;23.316;2023-02-24T14:30:49;24.33;;;14.48;;
10715;SDS011;5409;42.620;23.316;2023-02-24T14:33:19;26.38;;;14.45;;
10715;SDS011;5409;42.620;23.316;2023-02-24T14:35:48;23.50;;;13.95;;
10715;SDS011;5409;42.620;23.316;2023-02-24T14:38:27;22.65;;;14.23;;
10715;SDS011;5409;42.620;23.316;2023-02-24T14:40:54;25.77;;;12.60;;
10715;SDS011;5409;42.620;23.316;2023-02-24T14:43:20;24.65;;;13.55;;
10715;SDS011;5409;42.620;23.316;2023-02-24T14:45:47;22.33;;;12.57;;
10715;SDS011;5409;42.620;23.316;2023-02-24T14:48:18;19.40;;;12.60;;
10715;SDS011;5409;42.620;23.316;2023-02-24T14:50:46;24.85;;;15.68;;
10715;SDS011;5409;42.620;23.316;2023-02-24T14:53:13;29.80;;;17.38;;
10715;SDS011;5409;42.620;23.316;2023-02-24T14:55:44;32.15;;;18.77;;
10715;SDS011;5409;42.620;23.316;2023-02-24T14:58:12;24.15;;;17.25;;
10715;SDS011;5409;42.620;23.316;2023-02-24T15:00:40;34.38;;;18.13;;
10715;SDS011;5409;42.620;23.316;2023-02-24T15:03:09;24.02;;;15.20;;